createdAt,value
2019-05-26T01:53:06.506Z,18.40
2019-05-26T01:58:10.817Z,18.40
2019-05-26T02:03:15.201Z,18.40
2019-05-26T02:08:19.523Z,18.40
2019-05-26T02:13:23.837Z,18.40
2019-05-26T02:18:28.145Z,18.40
2019-05-26T02:23:32.460Z,18.40
2019-05-26T02:28:36.764Z,18.30
2019-05-26T02:33:41.083Z,18.30
2019-05-26T02:39:01.435Z,18.30
2019-05-26T02:43:51.487Z,18.30
2019-05-26T02:48:55.796Z,18.30
2019-05-26T02:54:00.107Z,18.30
2019-05-26T02:59:04.592Z,18.30
2019-05-26T03:04:09.168Z,18.30
2019-05-26T03:09:22.494Z,18.30
2019-05-26T03:14:24.162Z,18.30
2019-05-26T03:19:28.489Z,18.20
2019-05-26T03:24:34.319Z,18.30
2019-05-26T03:29:38.628Z,18.30
2019-05-26T03:34:42.942Z,18.30
2019-05-26T03:39:47.282Z,18.30
2019-05-26T03:44:51.634Z,18.30
2019-05-26T03:49:55.943Z,18.30
2019-05-26T03:55:00.250Z,18.30
2019-05-26T04:00:08.037Z,18.30
2019-05-26T04:05:12.616Z,18.30
2019-05-26T04:10:17.266Z,18.30
2019-05-26T04:15:21.565Z,18.30
2019-05-26T04:20:25.872Z,18.30
2019-05-26T04:25:30.186Z,18.30
2019-05-26T04:30:34.498Z,18.30
2019-05-26T04:35:38.807Z,18.30
2019-05-26T04:40:43.103Z,18.30
2019-05-26T04:45:47.465Z,18.20
2019-05-26T04:50:51.777Z,18.20
2019-05-26T04:55:56.100Z,18.20
2019-05-26T05:01:00.383Z,18.20
2019-05-26T05:06:04.694Z,18.20
2019-05-26T05:11:09.005Z,18.20
2019-05-26T05:16:13.315Z,18.20
2019-05-26T05:21:17.622Z,18.10
2019-05-26T05:26:21.936Z,18.10
2019-05-26T05:31:26.241Z,18.20
2019-05-26T05:36:30.545Z,18.10
2019-05-26T05:41:34.855Z,18.10
2019-05-26T05:46:39.173Z,18.10
2019-05-26T05:51:43.476Z,18.10
2019-05-26T05:56:47.789Z,18.00
2019-05-26T06:01:52.861Z,18.10
2019-05-26T06:06:57.166Z,18.00
2019-05-26T06:12:01.456Z,18.00
2019-05-26T06:17:06.044Z,18.00
2019-05-26T06:22:10.353Z,18.00
2019-05-26T06:27:14.655Z,18.00
2019-05-26T06:32:18.984Z,17.90
2019-05-26T06:37:23.274Z,17.90
2019-05-26T06:42:27.819Z,17.80
2019-05-26T06:47:32.131Z,17.80
2019-05-26T06:52:36.434Z,17.80
2019-05-26T06:57:40.742Z,17.80
2019-05-26T07:02:45.055Z,17.80
2019-05-26T07:07:49.368Z,17.90
2019-05-26T07:12:53.677Z,17.90
2019-05-26T07:17:57.973Z,17.90
2019-05-26T07:23:02.562Z,17.90
2019-05-26T07:28:07.061Z,18.00
2019-05-26T07:33:11.367Z,18.00
2019-05-26T07:38:15.680Z,18.00
2019-05-26T07:43:19.998Z,18.00
2019-05-26T07:48:24.297Z,18.00
2019-05-26T07:53:28.608Z,18.00
2019-05-26T07:58:32.945Z,17.90
2019-05-26T08:03:37.253Z,17.90
2019-05-26T08:08:41.565Z,18.00
2019-05-26T08:13:45.879Z,17.90
2019-05-26T08:18:50.184Z,18.00
2019-05-26T08:23:54.516Z,18.00
2019-05-26T08:28:58.819Z,18.00
2019-05-26T08:34:03.131Z,18.10
2019-05-26T08:39:10.409Z,18.10
2019-05-26T08:44:14.011Z,18.10
2019-05-26T08:49:18.278Z,18.10
2019-05-26T08:54:22.587Z,18.10
2019-05-26T08:59:27.022Z,18.10
2019-05-26T09:04:31.341Z,18.20
2019-05-26T09:09:35.801Z,18.30
2019-05-26T09:14:40.235Z,18.30
2019-05-26T09:19:44.545Z,18.30
2019-05-26T09:24:48.854Z,18.40
2019-05-26T09:29:53.161Z,18.40
2019-05-26T09:34:57.538Z,18.50
2019-05-26T09:40:01.846Z,18.60
2019-05-26T09:45:10.241Z,18.60
2019-05-26T09:50:16.457Z,18.70
2019-05-26T09:55:20.939Z,18.80
2019-05-26T10:00:26.049Z,18.90
2019-05-26T10:05:30.355Z,18.90
2019-05-26T10:10:34.670Z,19.00
2019-05-26T10:15:38.974Z,19.00
2019-05-26T10:20:43.352Z,19.10
2019-05-26T10:25:47.662Z,19.10
2019-05-26T10:30:51.976Z,19.20
2019-05-26T10:35:56.291Z,19.20
2019-05-26T10:41:00.589Z,19.20
2019-05-26T10:46:05.064Z,19.20
2019-05-26T10:51:09.381Z,19.30
2019-05-26T10:56:13.867Z,19.30
2019-05-26T11:01:18.272Z,19.30
2019-05-26T11:06:22.706Z,19.40
2019-05-26T11:11:27.005Z,19.40
2019-05-26T11:16:31.329Z,19.40
2019-05-26T11:21:35.641Z,19.40
2019-05-26T11:26:39.958Z,19.40
2019-05-26T11:31:44.275Z,19.40
2019-05-26T11:36:48.591Z,19.40
2019-05-26T11:41:54.996Z,19.40
2019-05-26T11:46:58.928Z,19.50
2019-05-26T11:52:03.237Z,19.50
2019-05-26T11:57:07.580Z,19.60
2019-05-26T12:02:12.046Z,19.70
2019-05-26T12:07:16.346Z,19.80
2019-05-26T12:12:20.662Z,19.80
2019-05-26T12:17:24.989Z,19.90
2019-05-26T12:22:30.954Z,19.90
2019-05-26T12:27:35.232Z,20.00
2019-05-26T12:32:39.719Z,20.00
2019-05-26T12:37:44.003Z,20.00
2019-05-26T12:42:48.363Z,20.00
2019-05-26T12:47:52.677Z,20.00
2019-05-26T12:52:56.986Z,20.10
2019-05-26T12:58:01.291Z,20.00
2019-05-26T13:03:06.241Z,20.10
2019-05-26T13:08:10.527Z,20.10
2019-05-26T13:13:14.832Z,20.10
2019-05-26T13:18:19.136Z,20.20
2019-05-26T13:23:23.434Z,20.20
2019-05-26T13:28:27.745Z,20.20
2019-05-26T13:33:32.048Z,20.20
2019-05-26T13:38:36.358Z,20.20
2019-05-26T13:43:40.656Z,20.20
2019-05-26T13:48:45.002Z,20.20
2019-05-26T13:53:49.275Z,20.30
2019-05-26T13:58:53.578Z,20.30
2019-05-26T14:03:57.876Z,20.30
2019-05-26T14:09:02.429Z,20.40
2019-05-26T14:14:06.859Z,20.40
2019-05-26T14:19:11.494Z,20.50
2019-05-26T14:24:15.802Z,20.50
2019-05-26T14:29:20.101Z,20.60
2019-05-26T14:34:24.412Z,20.60
2019-05-26T14:39:28.708Z,20.70
2019-05-26T14:44:33.090Z,20.70
2019-05-26T14:49:37.393Z,20.70
2019-05-26T14:54:41.691Z,20.80
2019-05-26T14:59:46.005Z,20.80
2019-05-26T15:04:50.313Z,20.80
2019-05-26T15:09:54.605Z,20.80
2019-05-26T15:14:58.906Z,20.90
2019-05-26T15:20:03.606Z,20.90
2019-05-26T15:25:08.631Z,20.90
2019-05-26T15:30:13.674Z,20.90
2019-05-26T15:35:18.045Z,20.90
2019-05-26T15:40:22.353Z,20.90
2019-05-26T15:45:26.662Z,20.90
2019-05-26T15:50:31.043Z,20.90
2019-05-26T15:55:39.561Z,20.80
2019-05-26T16:00:41.470Z,20.80
2019-05-26T16:05:47.101Z,20.80
2019-05-26T16:10:51.416Z,20.70
2019-05-26T16:15:55.725Z,20.80
2019-05-26T16:21:03.332Z,20.70
2019-05-26T16:26:06.228Z,20.70
2019-05-26T16:31:12.256Z,20.70
2019-05-26T16:36:16.557Z,20.70
2019-05-26T16:41:20.865Z,20.70
2019-05-26T16:46:25.171Z,20.70
2019-05-26T16:51:29.473Z,20.60
2019-05-26T16:56:33.781Z,20.60
2019-05-26T17:01:38.076Z,20.60
2019-05-26T17:06:42.377Z,20.60
2019-05-26T17:11:46.693Z,20.60
2019-05-26T17:16:50.997Z,20.60
2019-05-26T17:21:55.308Z,20.70
2019-05-26T17:26:59.606Z,20.70
2019-05-26T17:32:03.922Z,20.70
2019-05-26T17:37:08.229Z,20.70
2019-05-26T17:42:12.560Z,20.70
2019-05-26T17:47:29.149Z,20.70
2019-05-26T17:52:22.908Z,20.80
2019-05-26T17:57:27.214Z,20.80
2019-05-26T18:02:31.521Z,20.80
2019-05-26T18:07:35.828Z,20.80
2019-05-26T18:12:40.126Z,20.80
2019-05-26T18:17:47.403Z,20.80
2019-05-26T18:22:50.495Z,20.70
2019-05-26T18:27:54.783Z,20.70
2019-05-26T18:32:59.083Z,20.70
2019-05-26T18:38:03.404Z,20.60
2019-05-26T18:43:07.700Z,20.60
2019-05-26T18:48:12.008Z,20.50
2019-05-26T18:53:16.307Z,20.50
2019-05-26T18:58:20.637Z,20.40
2019-05-26T19:03:25.699Z,20.40
2019-05-26T19:08:30.040Z,20.40
2019-05-26T19:13:34.347Z,20.30
2019-05-26T19:18:38.648Z,20.30
2019-05-26T19:23:42.956Z,20.20
2019-05-26T19:28:47.261Z,20.20
2019-05-26T19:33:51.609Z,20.20
2019-05-26T19:38:55.921Z,20.20
2019-05-26T19:44:00.226Z,20.20
2019-05-26T19:49:04.585Z,20.20
2019-05-26T19:54:08.886Z,20.20
2019-05-26T19:59:13.199Z,20.20
2019-05-26T20:04:17.512Z,20.10
2019-05-26T20:09:21.811Z,20.10
2019-05-26T20:14:26.118Z,20.10
2019-05-26T20:19:30.428Z,20.00
2019-05-26T20:24:34.759Z,20.00
2019-05-26T20:29:39.062Z,19.90
2019-05-26T20:34:43.378Z,19.80
2019-05-26T20:39:47.684Z,19.80
2019-05-26T20:44:52.015Z,19.80
2019-05-26T20:49:56.315Z,19.80
2019-05-26T20:55:00.621Z,19.90
2019-05-26T21:00:11.105Z,19.90
2019-05-26T21:05:17.028Z,19.90
2019-05-26T21:10:21.328Z,19.90
2019-05-26T21:15:25.626Z,19.90
2019-05-26T21:20:29.924Z,20.00
2019-05-26T21:25:34.232Z,20.00
2019-05-26T21:30:38.612Z,20.00
2019-05-26T21:35:42.898Z,20.00
2019-05-26T21:40:47.191Z,20.00
2019-05-26T21:45:51.619Z,20.00
2019-05-26T21:50:56.015Z,20.00
2019-05-26T21:56:00.310Z,20.00
2019-05-26T22:01:04.680Z,20.00
2019-05-26T22:06:08.990Z,20.00
2019-05-26T22:11:13.305Z,20.00
2019-05-26T22:16:17.609Z,20.00
2019-05-26T22:21:21.891Z,20.00
2019-05-26T22:26:26.207Z,20.00
2019-05-26T22:31:30.505Z,20.00
2019-05-26T22:36:34.803Z,20.00
2019-05-26T22:41:39.105Z,20.00
2019-05-26T22:46:43.415Z,20.00
2019-05-26T22:51:47.727Z,19.90
2019-05-26T22:56:52.011Z,19.90
2019-05-26T23:01:56.307Z,19.90
2019-05-26T23:07:00.618Z,19.90
2019-05-26T23:12:04.918Z,19.80
2019-05-26T23:17:09.215Z,19.80
2019-05-26T23:22:13.511Z,19.80
2019-05-26T23:27:17.817Z,19.80
2019-05-26T23:32:22.121Z,19.80
2019-05-26T23:37:26.417Z,19.80
2019-05-26T23:42:30.721Z,19.70
2019-05-26T23:47:35.027Z,19.70
2019-05-26T23:52:39.334Z,19.70
2019-05-26T23:57:43.631Z,19.70
